Terminal Aerodrome Forecast
Issued by NWS

Home | Current Version | Previous Version | Text Only | Print | Product List | Glossary On
Versions: 1 2 3 4 5 6 7 8 9 10 11 12
000
FTUS46 KMFR 022320
TAFLMT
TAF
KLMT 022320Z 0300/0324 31008KT P6SM SCT070
     FM030100 32012KT P6SM BKN070
     FM030500 VRB03KT P6SM SCT060 BKN200
     FM031600 35006KT P6SM SKC=

USA.gov is the U.S. government's official web portal to all federal, state and local government web resources and services.